createdAt,value
2023-01-07T19:09:36.048Z,226.52
2023-01-07T19:12:04.007Z,210.90
2023-01-07T19:14:31.882Z,181.45
2023-01-07T19:16:59.849Z,173.00
2023-01-07T19:19:36.973Z,152.80
2023-01-07T19:22:11.759Z,144.65
2023-01-07T19:24:40.983Z,141.77
2023-01-07T19:27:08.839Z,123.00
2023-01-07T19:29:36.691Z,122.20
2023-01-07T19:32:04.962Z,115.70
2023-01-07T19:34:33.063Z,103.75
2023-01-07T19:37:01.220Z,103.72
2023-01-07T19:39:29.144Z,95.20
2023-01-07T19:41:58.511Z,93.63
2023-01-07T19:44:26.610Z,91.10
2023-01-07T19:46:54.554Z,78.65
2023-01-07T19:49:22.441Z,74.22
2023-01-07T19:51:52.427Z,77.82
2023-01-07T19:54:20.390Z,68.15
2023-01-07T19:56:48.256Z,72.90
2023-01-07T19:59:17.606Z,65.13
2023-01-07T20:01:45.905Z,58.08
2023-01-07T20:04:13.813Z,54.47
2023-01-07T20:06:41.825Z,59.78
2023-01-07T20:09:11.440Z,56.55
2023-01-07T20:11:39.844Z,56.13
2023-01-07T20:14:08.188Z,56.05
2023-01-07T20:16:39.424Z,54.10
2023-01-07T20:19:07.657Z,57.97
2023-01-07T20:21:35.543Z,52.88
2023-01-07T20:24:04.322Z,59.45
2023-01-07T20:26:33.508Z,48.90
2023-01-07T20:29:01.676Z,50.03
2023-01-07T20:31:31.401Z,55.50
2023-01-07T20:34:01.351Z,57.78
2023-01-07T20:36:31.192Z,58.88
2023-01-07T20:39:03.403Z,54.47
2023-01-07T20:41:31.318Z,55.38
2023-01-07T20:44:01.147Z,57.80
2023-01-07T20:46:30.718Z,57.00
2023-01-07T20:49:00.135Z,55.65
2023-01-07T20:51:28.484Z,59.03
2023-01-07T20:53:56.357Z,60.45
2023-01-07T20:56:26.040Z,61.95
2023-01-07T20:58:53.911Z,59.55
2023-01-07T21:01:22.608Z,56.90
2023-01-07T21:03:51.143Z,64.68
2023-01-07T21:06:21.545Z,65.50
2023-01-07T21:08:50.620Z,65.47
2023-01-07T21:11:20.402Z,62.53
2023-01-07T21:13:48.979Z,59.10
2023-01-07T21:16:17.476Z,62.08
2023-01-07T21:18:46.953Z,59.70
2023-01-07T21:21:16.977Z,58.38
2023-01-07T21:23:47.678Z,50.13
2023-01-07T21:26:16.256Z,53.83
2023-01-07T21:28:44.715Z,51.75
2023-01-07T21:31:15.185Z,51.42
2023-01-07T21:33:43.604Z,46.90
2023-01-07T21:36:13.791Z,50.25
2023-01-07T21:38:42.128Z,46.13
2023-01-07T21:41:13.607Z,45.85
2023-01-07T21:43:41.740Z,48.97
2023-01-07T21:46:10.454Z,43.78
2023-01-07T21:48:40.169Z,48.35
2023-01-07T21:51:10.645Z,48.83
2023-01-07T21:53:38.874Z,49.25
2023-01-07T21:56:07.783Z,47.38
2023-01-07T21:58:37.589Z,55.58
2023-01-07T22:01:06.895Z,51.67
2023-01-07T22:03:35.789Z,54.85
2023-01-07T22:06:06.469Z,49.20
2023-01-07T22:08:35.087Z,51.67
2023-01-07T22:11:02.988Z,50.13
2023-01-07T22:13:30.828Z,48.33
2023-01-07T22:16:00.060Z,56.55
2023-01-07T22:18:27.948Z,57.92
2023-01-07T22:20:56.485Z,46.25
2023-01-07T22:23:24.757Z,52.53
2023-01-07T22:25:52.612Z,43.45
2023-01-07T22:28:23.943Z,53.85
2023-01-07T22:30:54.099Z,48.13
2023-01-07T22:33:23.550Z,49.53
2023-01-07T22:35:52.170Z,50.30
2023-01-07T22:38:23.570Z,51.17
2023-01-07T22:40:51.869Z,57.80
2023-01-07T22:43:23.695Z,48.42
2023-01-07T22:45:55.844Z,45.38
2023-01-07T22:48:28.253Z,53.28
2023-01-07T22:51:01.683Z,45.72
2023-01-07T22:53:30.543Z,50.30
2023-01-07T22:55:59.574Z,45.40
2023-01-07T22:58:27.625Z,45.03
2023-01-07T23:01:12.711Z,42.75
2023-01-07T23:03:42.952Z,49.10
2023-01-07T23:06:13.105Z,39.13
2023-01-07T23:08:41.124Z,48.17
2023-01-07T23:11:09.245Z,39.70
2023-01-07T23:13:37.504Z,47.40
2023-01-07T23:16:07.355Z,42.78
2023-01-07T23:18:35.545Z,48.03
2023-01-07T23:21:06.646Z,52.05
2023-01-07T23:23:34.501Z,55.85
2023-01-07T23:26:02.394Z,60.78
2023-01-07T23:28:30.244Z,55.10
2023-01-07T23:31:01.744Z,60.40
2023-01-07T23:33:29.691Z,59.08
2023-01-07T23:36:02.558Z,66.18
2023-01-07T23:38:32.144Z,64.28
2023-01-07T23:41:03.327Z,68.03
2023-01-07T23:43:31.798Z,67.80
2023-01-07T23:46:00.241Z,62.50
2023-01-07T23:48:28.751Z,65.68
2023-01-07T23:50:57.613Z,63.03
2023-01-07T23:53:26.488Z,63.83
2023-01-07T23:55:57.237Z,61.63
2023-01-07T23:58:26.382Z,63.40
